Time;durP1;ratioP1;P1;durP2;ratioP2;P2;SDS_P1;SDS_P2;PMS_P1;PMS_P2;Temp;Humidity;BMP_temperature;BMP_pressure;BME280_temperature;BME280_humidity;BME280_pressure;Samples;Min_cycle;Max_cycle;Signal;HPM_P1;HPM_P2
2022/05/04 00:00:51;;;;;;;12.43;9.80;;;16.30;76.70;;;;;;4903840;29;20467;-83
2022/05/04 00:03:18;;;;;;;11.60;10.13;;;16.20;77.10;;;;;;4910194;29;20523;-84
2022/05/04 00:05:45;;;;;;;10.87;9.73;;;16.10;77.40;;;;;;4915198;29;20438;-86
2022/05/04 00:08:11;;;;;;;9.77;8.77;;;16.10;77.90;;;;;;4921498;29;20492;-86
2022/05/04 00:10:38;;;;;;;12.60;10.70;;;16.00;78.30;;;;;;4914679;29;20457;-84
2022/05/04 00:13:05;;;;;;;12.20;10.50;;;15.90;78.80;;;;;;4912830;29;20488;-85
2022/05/04 00:15:32;;;;;;;10.87;8.83;;;15.90;78.80;;;;;;4916623;29;20478;-87
2022/05/04 00:17:58;;;;;;;13.97;8.70;;;15.90;79.30;;;;;;4909587;29;20461;-82
2022/05/04 00:20:28;;;;;;;10.97;9.43;;;15.90;79.30;;;;;;4906959;29;20463;-83
2022/05/04 00:22:54;;;;;;;10.90;8.53;;;15.90;80.50;;;;;;4912959;29;20467;-85
2022/05/04 00:25:21;;;;;;;14.93;8.57;;;15.90;80.20;;;;;;4908249;29;20472;-86
2022/05/04 00:27:48;;;;;;;10.20;8.60;;;15.90;79.70;;;;;;4897638;29;20519;-83
2022/05/04 00:30:15;;;;;;;11.57;9.87;;;15.90;80.00;;;;;;4910380;29;20511;-87
2022/05/04 00:32:44;;;;;;;8.63;7.73;;;15.80;80.30;;;;;;4911237;29;20616;-84
2022/05/04 00:35:11;;;;;;;10.53;9.20;;;15.80;80.60;;;;;;4902448;29;20528;-83
2022/05/04 00:37:48;;;;;;;12.93;9.47;;;15.80;80.70;;;;;;4909754;29;20621;-85
2022/05/04 00:40:14;;;;;;;16.23;8.80;;;15.80;80.90;;;;;;4905357;29;20460;-82
2022/05/04 00:42:42;;;;;;;11.03;9.93;;;15.70;81.00;;;;;;4909604;29;20479;-87
2022/05/04 00:45:09;;;;;;;13.47;9.20;;;15.70;81.50;;;;;;4914251;29;20452;-84
2022/05/04 00:47:36;;;;;;;11.00;9.20;;;15.50;82.10;;;;;;4931864;29;20482;-84
2022/05/04 00:50:06;;;;;;;9.80;8.80;;;15.40;82.80;;;;;;4912539;29;20452;-83
2022/05/04 00:52:34;;;;;;;10.23;8.40;;;15.40;83.50;;;;;;4910193;29;20553;-81
2022/05/04 00:55:03;;;;;;;11.73;8.90;;;15.40;83.90;;;;;;4907734;29;20468;-85
2022/05/04 01:00:19;;;;;;;14.57;8.93;;;15.30;84.30;;;;;;4905693;29;22134;-85
2022/05/04 01:02:46;;;;;;;9.57;8.47;;;15.20;84.90;;;;;;4911659;29;20476;-84
2022/05/04 01:05:13;;;;;;;10.27;8.67;;;15.10;85.20;;;;;;4901198;29;20536;-86
2022/05/04 01:07:41;;;;;;;16.60;9.60;;;15.10;85.50;;;;;;4901421;29;20479;-85
2022/05/04 01:10:10;;;;;;;9.77;8.77;;;15.10;85.80;;;;;;4921095;29;20460;-83
2022/05/04 01:12:47;;;;;;;9.70;8.70;;;15.00;86.20;;;;;;4907284;29;20522;-82
2022/05/04 01:15:14;;;;;;;12.00;9.07;;;14.90;86.60;;;;;;4908430;29;20467;-82
2022/05/04 01:17:41;;;;;;;9.47;8.00;;;15.00;87.00;;;;;;4911117;29;20512;-83
2022/05/04 01:20:08;;;;;;;9.27;7.90;;;15.00;86.80;;;;;;4912116;29;20496;-84
2022/05/04 01:22:36;;;;;;;8.70;7.90;;;15.20;86.20;;;;;;4909522;29;20487;-84
2022/05/04 01:25:04;;;;;;;11.50;8.63;;;15.10;86.20;;;;;;4905051;29;20464;-83
2022/05/04 01:27:31;;;;;;;11.70;9.23;;;15.10;86.20;;;;;;4910391;29;20490;-83
2022/05/04 01:29:58;;;;;;;12.87;9.30;;;15.00;86.40;;;;;;4908250;29;20463;-84
2022/05/04 01:32:25;;;;;;;14.00;9.27;;;14.90;87.00;;;;;;4913946;29;20479;-85
2022/05/04 01:34:52;;;;;;;11.53;9.47;;;15.10;86.80;;;;;;4899472;29;20466;-82
2022/05/04 01:37:19;;;;;;;11.13;8.77;;;15.10;86.20;;;;;;4905626;29;20460;-83
2022/05/04 01:39:46;;;;;;;15.73;9.03;;;15.00;86.40;;;;;;4906931;29;20480;-83
2022/05/04 01:42:16;;;;;;;10.20;8.20;;;14.80;87.00;;;;;;4904654;29;20476;-82
2022/05/04 01:44:45;;;;;;;11.20;8.20;;;14.70;87.90;;;;;;4907461;29;20532;-83
2022/05/04 01:47:12;;;;;;;11.23;8.50;;;14.70;88.50;;;;;;4900432;29;20467;-84
2022/05/04 01:49:39;;;;;;;12.53;8.73;;;14.60;88.70;;;;;;4902675;29;20500;-82
2022/05/04 01:52:06;;;;;;;13.70;9.30;;;14.50;89.30;;;;;;4910033;29;20490;-82
2022/05/04 01:54:33;;;;;;;11.53;9.57;;;14.40;89.90;;;;;;4915920;29;20470;-82
2022/05/04 01:57:00;;;;;;;11.27;8.80;;;14.30;90.20;;;;;;4909946;29;20452;-85
2022/05/04 01:59:26;;;;;;;12.60;8.60;;;14.20;90.40;;;;;;4919189;29;20462;-86
2022/05/04 02:01:53;;;;;;;9.83;7.87;;;14.30;90.60;;;;;;4923600;29;20510;-85
2022/05/04 02:04:22;;;;;;;9.37;8.00;;;14.20;90.60;;;;;;4923958;29;20499;-87
2022/05/04 02:06:49;;;;;;;11.60;9.33;;;14.20;90.60;;;;;;4923335;29;20533;-84
2022/05/04 02:09:15;;;;;;;11.33;8.70;;;14.10;91.00;;;;;;4922059;29;20575;-88
2022/05/04 02:11:42;;;;;;;9.90;8.43;;;14.10;91.20;;;;;;4936298;28;20478;-88
2022/05/04 02:14:09;;;;;;;9.13;7.90;;;14.10;91.40;;;;;;4919334;29;20523;-85
2022/05/04 02:16:36;;;;;;;11.93;8.60;;;14.20;91.20;;;;;;4934314;29;20491;-87
2022/05/04 02:19:03;;;;;;;11.90;8.80;;;14.10;91.10;;;;;;4922287;29;20460;-88
2022/05/04 02:21:30;;;;;;;11.93;8.60;;;14.20;91.40;;;;;;4921120;29;20483;-88
2022/05/04 02:23:56;;;;;;;9.70;8.63;;;14.20;91.40;;;;;;4914766;29;20460;-87
2022/05/04 02:26:23;;;;;;;11.17;8.53;;;14.10;91.30;;;;;;4932866;28;20458;-86
2022/05/04 02:28:50;;;;;;;11.43;8.80;;;14.10;91.40;;;;;;4931175;29;20503;-88
2022/05/04 02:31:17;;;;;;;10.83;8.80;;;14.20;91.30;;;;;;4914094;29;20469;-85
2022/05/04 02:33:44;;;;;;;11.20;8.17;;;14.20;91.30;;;;;;4914608;29;20491;-84
2022/05/04 02:38:56;;;;;;;10.67;8.53;;;14.20;91.30;;;;;;4904884;29;20577;-85
2022/05/04 02:41:24;;;;;;;13.80;9.70;;;14.10;91.30;;;;;;4919383;29;20503;-83
2022/05/04 02:43:50;;;;;;;11.07;8.50;;;14.10;91.40;;;;;;4911995;29;20518;-83
2022/05/04 02:46:19;;;;;;;11.30;9.03;;;14.10;91.50;;;;;;4912230;29;20460;-84
2022/05/04 02:48:47;;;;;;;11.10;9.40;;;14.10;91.60;;;;;;4916004;29;21028;-85
2022/05/04 02:51:14;;;;;;;10.10;8.60;;;14.10;91.70;;;;;;4921977;29;20455;-88
2022/05/04 02:53:41;;;;;;;11.53;8.50;;;14.00;91.70;;;;;;4920175;29;20463;-86
2022/05/04 02:56:10;;;;;;;11.00;9.80;;;14.00;91.80;;;;;;4909025;29;20478;-86
2022/05/04 02:58:37;;;;;;;13.80;8.90;;;14.00;91.80;;;;;;4912354;29;20460;-86
2022/05/04 03:04:04;;;;;;;11.90;9.03;;;13.90;92.10;;;;;;4918949;29;20455;-85
2022/05/04 03:06:31;;;;;;;11.70;8.93;;;13.90;92.10;;;;;;4916522;29;20478;-85
2022/05/04 03:08:58;;;;;;;11.53;9.03;;;13.90;92.20;;;;;;4919019;29;20536;-81
2022/05/04 03:14:10;;;;;;;13.50;10.63;;;13.90;92.20;;;;;;4914998;29;20466;-86
2022/05/04 03:16:37;;;;;;;9.50;8.50;;;13.90;92.20;;;;;;4920733;29;20456;-87
2022/05/04 03:19:04;;;;;;;14.50;10.13;;;13.80;92.30;;;;;;4904075;29;20472;-87
2022/05/04 03:21:31;;;;;;;11.27;9.77;;;13.80;92.40;;;;;;4929414;29;20531;-87
2022/05/04 03:23:58;;;;;;;14.20;10.37;;;13.80;92.40;;;;;;4922208;29;20486;-87
2022/05/04 03:26:24;;;;;;;11.40;8.83;;;13.90;92.40;;;;;;4909324;29;20453;-86
2022/05/04 03:28:51;;;;;;;13.90;9.40;;;13.90;92.30;;;;;;4918233;29;20491;-85
2022/05/04 03:31:19;;;;;;;11.63;9.27;;;13.80;92.60;;;;;;4913418;29;20448;-84
2022/05/04 03:33:45;;;;;;;11.33;8.40;;;13.70;92.40;;;;;;4912292;29;20525;-85
2022/05/04 03:36:12;;;;;;;12.70;9.83;;;13.70;92.60;;;;;;4907497;29;20484;-86
2022/05/04 03:38:39;;;;;;;10.63;9.57;;;13.70;92.50;;;;;;4921286;29;20495;-81
2022/05/04 03:41:05;;;;;;;11.80;9.43;;;13.70;92.50;;;;;;4908634;29;20468;-84
2022/05/04 03:43:32;;;;;;;11.47;8.37;;;13.60;92.60;;;;;;4902304;29;20479;-84
2022/05/04 03:46:18;;;;;;;13.07;9.67;;;13.60;92.60;;;;;;4904273;29;20474;-84
2022/05/04 03:48:47;;;;;;;9.10;8.17;;;13.50;92.60;;;;;;4900779;29;20534;-84
2022/05/04 03:51:16;;;;;;;12.33;9.70;;;13.40;92.70;;;;;;4903767;29;20477;-84
2022/05/04 03:53:42;;;;;;;10.30;9.00;;;13.20;93.00;;;;;;4900014;29;20464;-85
2022/05/04 03:56:09;;;;;;;15.13;9.00;;;13.20;93.30;;;;;;4901990;29;20460;-85
2022/05/04 03:58:40;;;;;;;13.67;8.20;;;13.10;93.40;;;;;;4923008;28;20448;-88
2022/05/04 04:01:07;;;;;;;9.80;8.77;;;13.00;93.40;;;;;;4910817;29;20961;-83
2022/05/04 04:03:37;;;;;;;11.60;8.43;;;13.00;93.40;;;;;;4906145;29;20836;-83
2022/05/04 04:06:03;;;;;;;9.60;8.43;;;12.80;93.60;;;;;;4906343;29;20468;-85
2022/05/04 04:08:31;;;;;;;9.70;8.07;;;12.80;93.90;;;;;;4905416;29;20475;-86
2022/05/04 04:10:58;;;;;;;12.10;8.57;;;12.80;93.80;;;;;;4907716;29;20464;-87
2022/05/04 04:13:26;;;;;;;12.10;9.07;;;12.80;93.80;;;;;;4901787;29;20483;-85
2022/05/04 04:15:53;;;;;;;9.90;7.70;;;12.70;93.90;;;;;;4908547;29;20467;-84
2022/05/04 04:18:21;;;;;;;9.33;7.70;;;12.80;93.90;;;;;;4899649;29;20459;-84
2022/05/04 04:23:34;;;;;;;12.20;7.97;;;12.70;93.90;;;;;;4897655;29;20476;-82
2022/05/04 04:26:02;;;;;;;14.30;8.03;;;12.60;94.10;;;;;;4900115;29;20835;-86
2022/05/04 04:28:29;;;;;;;14.13;9.10;;;12.50;94.30;;;;;;4901823;29;20985;-85
2022/05/04 04:30:56;;;;;;;13.67;8.50;;;12.50;94.20;;;;;;4901679;29;20459;-85
2022/05/04 04:33:26;;;;;;;10.23;7.67;;;12.40;94.20;;;;;;4904909;29;21068;-84
2022/05/04 04:35:53;;;;;;;11.20;8.30;;;12.40;94.40;;;;;;4906076;29;20851;-84
2022/05/04 04:38:20;;;;;;;10.30;8.40;;;12.40;94.40;;;;;;4903698;29;20490;-84
2022/05/04 04:40:47;;;;;;;13.40;8.37;;;12.30;94.50;;;;;;4899900;29;20478;-83
2022/05/04 04:43:15;;;;;;;11.73;8.17;;;12.20;94.70;;;;;;4916117;29;20491;-83
2022/05/04 04:45:45;;;;;;;9.20;8.17;;;12.20;94.90;;;;;;4897685;29;20504;-84
2022/05/04 04:48:15;;;;;;;11.73;8.00;;;12.40;94.80;;;;;;4902704;29;20475;-83
2022/05/04 04:50:46;;;;;;;12.93;8.20;;;12.40;94.50;;;;;;4894906;29;20561;-83
2022/05/04 04:53:14;;;;;;;13.33;9.70;;;12.40;94.40;;;;;;4900981;29;20479;-83
2022/05/04 04:55:41;;;;;;;12.67;9.67;;;12.40;94.40;;;;;;4901366;29;20459;-83
2022/05/04 04:58:08;;;;;;;18.47;7.97;;;12.50;94.30;;;;;;4906440;29;20464;-83
2022/05/04 05:00:35;;;;;;;12.50;8.80;;;12.50;94.30;;;;;;4899979;29;20463;-84
2022/05/04 05:03:02;;;;;;;11.70;8.10;;;12.60;94.20;;;;;;4891762;29;20479;-83
2022/05/04 05:05:29;;;;;;;10.50;8.70;;;12.60;94.00;;;;;;4898715;29;20456;-84
2022/05/04 05:07:56;;;;;;;11.73;8.47;;;12.60;93.90;;;;;;4897134;29;20887;-84
2022/05/04 05:10:23;;;;;;;11.10;8.47;;;12.50;93.90;;;;;;4902471;29;20467;-84
2022/05/04 05:12:51;;;;;;;11.20;8.67;;;12.50;94.10;;;;;;4898614;29;20472;-85
2022/05/04 05:18:04;;;;;;;10.90;8.50;;;12.40;94.30;;;;;;4896482;29;20965;-83
2022/05/04 05:20:31;;;;;;;10.97;8.50;;;12.40;94.50;;;;;;4905038;29;20519;-82
2022/05/04 05:22:58;;;;;;;13.87;8.60;;;12.40;94.40;;;;;;4906204;29;20480;-82
2022/05/04 05:25:25;;;;;;;13.53;8.00;;;12.40;94.50;;;;;;4895354;29;20456;-84
2022/05/04 05:27:55;;;;;;;9.10;8.10;;;12.40;94.50;;;;;;4903964;29;20962;-84
2022/05/04 05:30:22;;;;;;;11.90;8.13;;;12.50;94.40;;;;;;4902723;29;20518;-84
2022/05/04 05:32:49;;;;;;;10.57;8.40;;;12.50;94.30;;;;;;4898336;29;20480;-82
2022/05/04 05:35:17;;;;;;;10.30;8.17;;;12.60;94.30;;;;;;4902687;29;20474;-82
2022/05/04 05:37:44;;;;;;;15.50;8.60;;;12.60;94.10;;;;;;4918220;29;20471;-80
2022/05/04 05:40:15;;;;;;;13.93;7.47;;;12.60;94.10;;;;;;4909227;29;20440;-87
2022/05/04 05:42:42;;;;;;;12.10;7.40;;;12.60;93.90;;;;;;4910698;29;20487;-84
2022/05/04 05:45:10;;;;;;;11.93;8.57;;;12.50;93.90;;;;;;4917957;29;20496;-82
2022/05/04 05:47:36;;;;;;;9.37;7.80;;;12.50;94.00;;;;;;4890983;29;20849;-82
2022/05/04 05:50:03;;;;;;;15.00;7.90;;;12.30;94.00;;;;;;4894004;29;20487;-83
2022/05/04 05:52:31;;;;;;;14.97;8.13;;;12.30;94.20;;;;;;4907619;29;20479;-83
2022/05/04 05:54:58;;;;;;;18.80;8.50;;;12.20;94.40;;;;;;4899718;29;20459;-86
2022/05/04 05:57:25;;;;;;;11.87;8.03;;;12.20;94.60;;;;;;4909865;29;20475;-81
2022/05/04 05:59:55;;;;;;;12.47;7.83;;;12.30;94.70;;;;;;4911353;29;20519;-84
2022/05/04 06:02:27;;;;;;;11.80;8.40;;;12.30;94.70;;;;;;4908781;29;20538;-84
2022/05/04 06:04:54;;;;;;;12.87;8.10;;;12.40;94.60;;;;;;4908591;29;20456;-85
2022/05/04 06:07:21;;;;;;;13.17;8.90;;;12.50;94.40;;;;;;4902344;29;20464;-85
2022/05/04 06:09:48;;;;;;;13.93;8.30;;;12.50;94.10;;;;;;4907483;29;20486;-85
2022/05/04 06:12:15;;;;;;;14.00;8.93;;;12.60;94.10;;;;;;4906138;29;20485;-84
2022/05/04 06:14:43;;;;;;;12.27;7.93;;;12.60;94.20;;;;;;4921988;29;20460;-86
2022/05/04 06:17:11;;;;;;;13.10;9.13;;;12.60;93.80;;;;;;4907033;29;20467;-86
2022/05/04 06:19:38;;;;;;;13.03;9.00;;;12.60;94.00;;;;;;4906417;29;20464;-85
2022/05/04 06:22:05;;;;;;;10.77;8.43;;;12.70;94.10;;;;;;4910845;29;20497;-87
2022/05/04 06:24:31;;;;;;;11.03;8.07;;;12.80;93.90;;;;;;4915378;29;20451;-86
2022/05/04 06:26:58;;;;;;;13.80;8.90;;;12.80;93.50;;;;;;4920091;29;20442;-88
2022/05/04 06:34:06;;;;;;;14.47;9.40;;;12.80;93.50;;;;;;4905638;29;20496;-86
2022/05/04 06:34:57;;;;;;;13.50;8.50;;;12.70;93.70;;;;;;4920581;29;20447;-84
2022/05/04 06:37:24;;;;;;;13.90;8.47;;;12.80;93.80;;;;;;4912026;29;20451;-84
2022/05/04 06:39:51;;;;;;;13.57;8.13;;;12.80;94.00;;;;;;4911403;29;20535;-84
2022/05/04 06:42:18;;;;;;;12.30;9.17;;;12.80;93.80;;;;;;4907179;29;20500;-85
2022/05/04 06:44:45;;;;;;;15.97;8.10;;;12.80;93.80;;;;;;4906284;29;20546;-82
2022/05/04 06:47:12;;;;;;;17.50;8.60;;;12.70;93.90;;;;;;4899129;29;20810;-84
2022/05/04 06:49:39;;;;;;;14.10;8.60;;;12.90;94.00;;;;;;4895812;29;20484;-85
2022/05/04 06:52:07;;;;;;;18.10;8.80;;;12.90;93.70;;;;;;4917194;29;20494;-85
2022/05/04 06:54:35;;;;;;;12.60;8.40;;;12.90;93.70;;;;;;4906020;29;20454;-84
2022/05/04 06:57:01;;;;;;;12.50;8.67;;;13.10;93.70;;;;;;4907818;29;20462;-85
2022/05/04 06:59:28;;;;;;;9.90;7.47;;;13.20;93.40;;;;;;4908008;29;20834;-85
2022/05/04 07:01:55;;;;;;;14.20;8.93;;;13.30;93.30;;;;;;4900251;29;20500;-85
2022/05/04 07:04:22;;;;;;;11.77;8.33;;;13.50;93.00;;;;;;4910012;29;20461;-86
2022/05/04 07:06:49;;;;;;;12.83;8.63;;;14.00;92.40;;;;;;4915748;29;20468;-85
2022/05/04 07:09:16;;;;;;;13.07;8.60;;;14.10;91.50;;;;;;4925675;29;20480;-87
2022/05/04 07:11:43;;;;;;;9.43;8.40;;;13.90;91.50;;;;;;4914143;29;20496;-84
2022/05/04 07:14:15;;;;;;;12.63;8.60;;;14.00;91.60;;;;;;4907904;29;20460;-84
2022/05/04 07:16:41;;;;;;;11.17;9.90;;;13.90;91.50;;;;;;4909313;29;20815;-85
2022/05/04 07:19:13;;;;;;;12.57;8.90;;;13.80;91.80;;;;;;4907605;29;20448;-88
2022/05/04 07:21:41;;;;;;;11.60;9.07;;;13.70;92.10;;;;;;4922933;29;20482;-87
2022/05/04 07:24:09;;;;;;;12.00;9.03;;;13.70;92.20;;;;;;4906704;29;20475;-86
2022/05/04 07:26:36;;;;;;;18.33;10.87;;;13.80;92.40;;;;;;4901682;29;20460;-88
2022/05/04 07:29:03;;;;;;;15.70;9.67;;;13.90;92.00;;;;;;4902677;29;20609;-86
2022/05/04 07:31:29;;;;;;;28.80;17.70;;;14.00;92.10;;;;;;4900905;29;20442;-83
2022/05/04 07:33:56;;;;;;;14.73;9.80;;;14.30;91.90;;;;;;4894978;29;20515;-86
2022/05/04 07:36:23;;;;;;;11.80;9.60;;;14.70;90.90;;;;;;4894286;29;20526;-86
2022/05/04 07:38:50;;;;;;;16.83;9.67;;;15.10;90.30;;;;;;4894886;29;20455;-88
2022/05/04 07:44:02;;;;;;;13.37;9.70;;;16.60;84.40;;;;;;4904680;29;20565;-84
2022/05/04 07:46:29;;;;;;;12.90;10.07;;;17.00;81.40;;;;;;4904925;29;20460;-86
2022/05/04 07:48:56;;;;;;;13.73;10.63;;;17.10;79.60;;;;;;4917042;29;20552;-88
2022/05/04 07:51:25;;;;;;;15.97;9.27;;;17.80;79.70;;;;;;4899131;29;20459;-86
2022/05/04 07:53:52;;;;;;;12.13;8.80;;;19.00;75.40;;;;;;4900298;29;20494;-85
2022/05/04 07:56:19;;;;;;;11.90;9.40;;;20.30;69.50;;;;;;4900182;29;20472;-84
2022/05/04 07:58:46;;;;;;;15.73;10.83;;;21.50;64.80;;;;;;4898930;29;20478;-86
2022/05/04 08:04:17;;;;;;;9.87;8.97;;;21.90;59.70;;;;;;4901542;29;20559;-89
2022/05/04 08:06:45;;;;;;;12.17;10.97;;;23.00;58.80;;;;;;4898871;29;20508;-87
2022/05/04 08:09:12;;;;;;;11.07;9.90;;;22.90;56.00;;;;;;4900856;29;21191;-86
2022/05/04 08:11:40;;;;;;;14.07;10.00;;;21.30;56.80;;;;;;4897231;29;20486;-86
2022/05/04 08:14:08;;;;;;;13.67;11.17;;;19.40;60.50;;;;;;4898599;29;20474;-86
2022/05/04 08:16:36;;;;;;;15.77;10.57;;;18.50;64.50;;;;;;4898991;29;20932;-83
2022/05/04 08:19:03;;;;;;;15.47;12.43;;;17.70;67.70;;;;;;4900894;29;20476;-84
2022/05/04 08:21:30;;;;;;;13.90;12.10;;;17.40;70.30;;;;;;4896478;29;20453;-87
2022/05/04 08:23:57;;;;;;;14.10;11.87;;;17.50;71.60;;;;;;4900643;29;20553;-86
2022/05/04 08:26:24;;;;;;;17.60;12.33;;;18.90;70.60;;;;;;4914968;29;20474;-85
2022/05/04 08:28:51;;;;;;;12.13;10.57;;;20.10;64.50;;;;;;4898097;29;20490;-87
2022/05/04 08:31:21;;;;;;;14.83;11.20;;;20.40;63.40;;;;;;4899424;29;21185;-86
2022/05/04 08:33:49;;;;;;;15.40;12.47;;;20.80;59.80;;;;;;4893483;29;20478;-86
2022/05/04 08:36:17;;;;;;;17.90;11.87;;;20.00;61.20;;;;;;4899402;29;20446;-84
2022/05/04 08:38:47;;;;;;;13.17;10.50;;;19.90;62.70;;;;;;4898770;29;20455;-87
2022/05/04 08:41:14;;;;;;;12.43;11.13;;;21.10;59.90;;;;;;4903189;29;20463;-87
2022/05/04 08:43:43;;;;;;;14.73;11.47;;;20.70;59.30;;;;;;4903326;29;20476;-86
2022/05/04 08:46:17;;;;;;;11.50;10.40;;;19.70;61.50;;;;;;4898807;29;20547;-86
2022/05/04 08:48:45;;;;;;;13.50;11.30;;;18.90;63.50;;;;;;4900062;29;20490;-88
2022/05/04 08:51:18;;;;;;;15.90;12.50;;;18.70;65.40;;;;;;4899711;29;20553;-88
2022/05/04 08:53:45;;;;;;;16.83;12.33;;;18.30;66.10;;;;;;4893526;29;20460;-86
2022/05/04 08:56:13;;;;;;;15.60;12.00;;;18.20;67.20;;;;;;4915664;29;20456;-85
2022/05/04 08:58:40;;;;;;;14.60;10.30;;;18.20;67.50;;;;;;4916323;29;20455;-87
2022/05/04 09:01:07;;;;;;;13.57;11.13;;;18.10;68.00;;;;;;4899566;29;21186;-87
2022/05/04 09:03:38;;;;;;;18.87;12.50;;;18.40;68.10;;;;;;4904587;29;20502;-87
2022/05/04 09:06:05;;;;;;;13.17;11.70;;;19.10;66.70;;;;;;4920279;29;20455;-88
2022/05/04 09:09:04;;;;;;;13.80;11.10;;;19.40;65.00;;;;;;4921641;29;20478;-87
2022/05/04 09:11:32;;;;;;;13.77;12.37;;;21.00;62.10;;;;;;4911883;29;20459;-88
2022/05/04 09:14:03;;;;;;;15.80;12.37;;;21.50;59.10;;;;;;4901361;29;20468;-87
2022/05/04 09:16:32;;;;;;;17.87;12.63;;;20.90;59.00;;;;;;4899818;29;20506;-85
2022/05/04 09:19:08;;;;;;;13.40;11.90;;;20.40;59.90;;;;;;4901416;29;20461;-87
2022/05/04 09:21:36;;;;;;;17.40;12.37;;;20.00;61.30;;;;;;4901390;29;20450;-85
2022/05/04 09:24:03;;;;;;;16.90;11.63;;;19.90;61.70;;;;;;4900783;29;20498;-84
2022/05/04 09:26:29;;;;;;;16.93;12.90;;;19.90;61.90;;;;;;4918572;29;20470;-86
2022/05/04 09:29:02;;;;;;;16.30;13.20;;;20.20;62.00;;;;;;4920336;29;20467;-85
2022/05/04 09:31:30;;;;;;;16.77;13.67;;;20.30;60.90;;;;;;4904522;29;20479;-85
2022/05/04 09:34:03;;;;;;;13.30;11.67;;;20.10;61.20;;;;;;4903388;29;20498;-85
2022/05/04 09:36:37;;;;;;;17.93;12.70;;;20.70;60.50;;;;;;4902976;29;20451;-84
2022/05/04 09:45:10;;;;;;;14.90;12.00;;;21.60;58.00;;;;;;4898369;29;20462;-85
2022/05/04 09:47:47;;;;;;;15.43;12.17;;;22.80;56.10;;;;;;4915379;29;20847;-86
2022/05/04 09:50:16;;;;;;;16.27;12.27;;;22.00;56.30;;;;;;4900500;29;20492;-85
2022/05/04 09:52:50;;;;;;;14.97;12.63;;;21.90;57.70;;;;;;4898837;29;20482;-84
2022/05/04 09:55:28;;;;;;;18.43;13.73;;;23.40;55.90;;;;;;4912925;29;20496;-81
2022/05/04 09:57:56;;;;;;;14.13;12.73;;;24.50;53.40;;;;;;4899011;29;20503;-87
2022/05/04 10:00:24;;;;;;;15.20;12.97;;;22.90;54.50;;;;;;4908631;29;20472;-88
2022/05/04 10:02:57;;;;;;;15.30;13.47;;;22.30;55.50;;;;;;4914932;29;20511;-89
2022/05/04 10:05:24;;;;;;;15.60;14.00;;;22.40;55.70;;;;;;4912076;29;20452;-88
2022/05/04 10:07:52;;;;;;;16.03;12.80;;;23.40;54.80;;;;;;4904672;29;20896;-87
2022/05/04 10:10:24;;;;;;;18.23;14.07;;;23.30;53.60;;;;;;4900316;29;20483;-87
2022/05/04 10:12:51;;;;;;;21.93;14.50;;;22.30;54.20;;;;;;4901866;29;20495;-85
2022/05/04 10:15:19;;;;;;;18.20;14.50;;;21.70;55.70;;;;;;4902477;29;20440;-88
2022/05/04 10:17:46;;;;;;;16.83;14.60;;;21.40;56.30;;;;;;4924534;29;20470;-87
2022/05/04 10:20:18;;;;;;;18.20;14.77;;;21.70;56.60;;;;;;4916411;29;20525;-87
2022/05/04 10:22:57;;;;;;;15.93;14.37;;;22.30;55.30;;;;;;4900706;29;20494;-85
2022/05/04 10:25:26;;;;;;;17.57;14.80;;;22.80;54.40;;;;;;4895502;29;20467;-87
2022/05/04 10:28:05;;;;;;;19.13;15.17;;;23.70;52.80;;;;;;4891317;29;20460;-83
2022/05/04 10:30:34;;;;;;;15.77;14.23;;;23.30;52.70;;;;;;4896861;29;20491;-84
2022/05/04 10:33:06;;;;;;;18.47;16.53;;;23.70;52.50;;;;;;4901516;29;20517;-82
2022/05/04 10:35:41;;;;;;;16.07;14.57;;;24.70;51.10;;;;;;4903469;29;20447;-83
2022/05/04 10:38:27;;;;;;;17.57;15.57;;;24.50;50.50;;;;;;4914431;29;20461;-83
2022/05/04 10:40:55;;;;;;;18.83;16.67;;;24.40;50.90;;;;;;4902938;29;20458;-86
2022/05/04 10:43:40;;;;;;;18.13;15.33;;;24.10;50.50;;;;;;4903312;29;20549;-84
2022/05/04 10:46:12;;;;;;;15.87;14.30;;;24.30;50.90;;;;;;4899959;29;20455;-86
2022/05/04 10:48:45;;;;;;;17.10;15.50;;;24.80;49.80;;;;;;4894908;29;21288;-83
2022/05/04 10:51:25;;;;;;;18.90;16.47;;;24.10;50.30;;;;;;4909611;29;21065;-83
2022/05/04 10:54:21;;;;;;;17.50;15.70;;;24.50;49.90;;;;;;4902089;29;20463;-85
2022/05/04 10:56:54;;;;;;;17.57;15.70;;;24.30;50.20;;;;;;4919646;29;20466;-87
2022/05/04 10:59:34;;;;;;;17.00;15.30;;;23.90;50.40;;;;;;4905486;29;20465;-88
2022/05/04 11:02:05;;;;;;;17.00;15.33;;;23.70;51.10;;;;;;4900706;29;20478;-84
2022/05/04 11:04:33;;;;;;;17.00;15.00;;;23.70;50.80;;;;;;4902669;29;20527;-86
2022/05/04 11:07:03;;;;;;;19.97;18.03;;;23.50;51.20;;;;;;4905014;29;20455;-85
2022/05/04 11:09:42;;;;;;;18.23;16.43;;;23.60;50.90;;;;;;4907076;29;20466;-87
2022/05/04 11:12:11;;;;;;;17.50;15.83;;;23.60;51.00;;;;;;4904794;29;20483;-86
2022/05/04 11:14:42;;;;;;;20.43;18.50;;;23.80;51.10;;;;;;4918182;29;20461;-86
2022/05/04 11:17:14;;;;;;;19.47;17.77;;;23.80;51.00;;;;;;4900449;29;20467;-87
2022/05/04 11:19:44;;;;;;;19.23;17.23;;;23.70;50.40;;;;;;4902540;29;20531;-86
2022/05/04 11:22:13;;;;;;;19.47;17.57;;;23.60;51.00;;;;;;4896327;29;20488;-86
2022/05/04 11:25:00;;;;;;;20.00;18.10;;;23.80;51.00;;;;;;4902147;29;20447;-83
2022/05/04 11:27:26;;;;;;;17.60;15.80;;;24.10;50.50;;;;;;4900294;29;20471;-85
2022/05/04 11:29:57;;;;;;;18.93;17.23;;;24.30;50.40;;;;;;4901440;29;20463;-88
2022/05/04 11:32:24;;;;;;;19.20;17.20;;;24.30;50.00;;;;;;4899881;29;20516;-87
2022/05/04 11:34:51;;;;;;;19.60;17.53;;;24.10;50.50;;;;;;4903929;29;20468;-89
2022/05/04 11:37:17;;;;;;;18.97;17.07;;;24.90;50.10;;;;;;4899423;29;20455;-89
2022/05/04 11:39:44;;;;;;;18.87;15.63;;;25.60;48.60;;;;;;4899434;29;20466;-86
2022/05/04 11:42:11;;;;;;;19.20;17.43;;;25.00;48.70;;;;;;4900295;29;20487;-84
2022/05/04 11:44:41;;;;;;;19.17;16.07;;;24.60;49.40;;;;;;4903140;29;20510;-86
2022/05/04 11:47:08;;;;;;;19.30;17.40;;;24.60;50.10;;;;;;4912916;29;20532;-86
2022/05/04 11:49:35;;;;;;;19.13;17.33;;;24.30;49.70;;;;;;4911624;29;20455;-86
2022/05/04 11:52:04;;;;;;;18.80;16.77;;;24.10;50.20;;;;;;4901852;29;20492;-85
2022/05/04 11:54:31;;;;;;;17.20;15.50;;;24.20;50.40;;;;;;4900111;29;20494;-83
2022/05/04 11:56:58;;;;;;;18.13;16.00;;;24.10;50.30;;;;;;4905070;29;20463;-87
2022/05/04 11:59:32;;;;;;;17.20;15.40;;;25.10;49.70;;;;;;4900822;29;20463;-84
2022/05/04 12:02:00;;;;;;;18.17;16.47;;;25.00;48.20;;;;;;4903251;29;20471;-87
2022/05/04 12:04:32;;;;;;;18.50;16.53;;;23.90;49.10;;;;;;4898773;29;20554;-88
2022/05/04 12:07:04;;;;;;;17.50;15.57;;;23.70;49.90;;;;;;4902538;29;20531;-86
2022/05/04 12:09:38;;;;;;;24.20;17.80;;;23.80;50.00;;;;;;4900782;29;20465;-85
2022/05/04 12:12:05;;;;;;;20.57;18.47;;;23.80;50.00;;;;;;4918443;29;20558;-84
2022/05/04 12:14:37;;;;;;;20.57;18.20;;;23.30;50.30;;;;;;4901378;29;20483;-87
2022/05/04 12:17:26;;;;;;;21.40;18.40;;;23.10;50.90;;;;;;4902051;29;20941;-85
2022/05/04 12:24:18;;;;;;;20.93;18.90;;;23.60;50.10;;;;;;4869089;29;20453;-84
2022/05/04 12:27:48;;;;;;;20.77;18.67;;;23.70;50.00;;;;;;4872592;29;20465;-86
2022/05/04 12:38:28;;;;;;;20.57;18.57;;;24.30;48.50;;;;;;4688483;30;20509;-88
2022/05/04 12:41:55;;;;;;;19.53;17.60;;;25.50;46.80;;;;;;4698627;30;20846;-84
2022/05/04 12:44:32;;;;;;;19.10;17.27;;;24.80;47.50;;;;;;4706803;30;20488;-82
2022/05/04 12:47:32;;;;;;;17.70;16.00;;;24.20;48.20;;;;;;4795389;29;20497;-83
2022/05/04 12:50:15;;;;;;;21.30;19.03;;;24.10;48.80;;;;;;4791063;29;20477;-83
2022/05/04 12:52:44;;;;;;;19.30;17.10;;;24.10;49.10;;;;;;4794708;29;20532;-87
2022/05/04 12:55:17;;;;;;;19.20;17.30;;;23.80;49.80;;;;;;4812095;29;20467;-85
2022/05/04 12:57:46;;;;;;;18.70;17.00;;;23.70;49.40;;;;;;4851984;29;20453;-88
2022/05/04 13:00:16;;;;;;;18.00;15.83;;;23.70;49.50;;;;;;4861993;29;20516;-83
2022/05/04 13:02:51;;;;;;;17.27;15.40;;;23.90;48.20;;;;;;4868602;29;21038;-85
2022/05/04 13:05:21;;;;;;;16.13;14.40;;;23.90;47.90;;;;;;4864758;29;20464;-83
2022/05/04 13:07:52;;;;;;;19.97;16.07;;;24.10;47.90;;;;;;4850710;29;20536;-85
2022/05/04 13:10:22;;;;;;;18.63;16.70;;;24.90;47.60;;;;;;4872854;29;20518;-85
2022/05/04 13:12:57;;;;;;;18.27;16.50;;;24.60;47.20;;;;;;4902037;29;20467;-83
2022/05/04 13:15:26;;;;;;;19.70;15.50;;;24.10;47.90;;;;;;4908818;29;20435;-88
2022/05/04 13:18:03;;;;;;;16.80;15.30;;;23.40;47.90;;;;;;4910297;29;20475;-87
2022/05/04 13:20:44;;;;;;;15.03;13.53;;;23.00;48.40;;;;;;4906098;29;20446;-87
2022/05/04 13:23:18;;;;;;;17.53;15.73;;;23.00;49.10;;;;;;4905227;29;20568;-86
2022/05/04 13:25:49;;;;;;;14.93;13.53;;;22.90;48.50;;;;;;4906857;29;20523;-88
2022/05/04 13:28:16;;;;;;;14.53;12.30;;;22.70;49.20;;;;;;4910350;29;20461;-89